EDT,Max TemperatureF,Mean TemperatureF,Min TemperatureF,Max Dew PointF,MeanDew PointF,Min DewpointF,Max Humidity, Mean Humidity, Min Humidity, Max Sea Level PressureIn, Mean Sea Level PressureIn, Min Sea Level PressureIn, Max VisibilityMiles, Mean VisibilityMiles, Min VisibilityMiles, Max Wind SpeedMPH, Mean Wind SpeedMPH, Max Gust SpeedMPH,PrecipitationIn, CloudCover, Events, WindDirDegrees
2012-10-1,72,60,50,52,49,46,89,71,45,29.99,29.89,29.81,10,10,10,16,5,23,0.01,0,,261
2012-10-2,73,64,55,68,60,53,96,87,51,30.04,30.01,29.98,10,8,2,8,1,,0.12,7,Rain,121
2012-10-3,73,69,66,68,67,66,100,94,87,30.13,30.06,29.98,10,2,0,7,2,,0.03,8,Fog-Rain,15
2012-10-4,70,68,66,67,66,64,100,95,88,30.14,30.10,30.04,8,2,0,7,1,,0.03,8,Fog-Rain,165
2012-10-5,79,71,62,66,62,53,100,85,42,30.06,30.03,29.96,10,6,0,8,2,,0.01,4,Fog,293
2012-10-6,75,65,54,65,58,44,93,77,60,29.98,29.88,29.78,10,9,5,17,7,26,0.01,1,,230
2012-10-7,59,50,43,48,44,39,90,77,51,30.11,30.06,30.00,10,10,10,9,3,,0.13,5,Rain,325
2012-10-8,57,48,41,47,43,39,93,82,57,30.29,30.21,30.11,10,8,2,9,2,,0.00,2,,329
2012-10-9,57,54,50,54,52,44,94,86,74,30.24,30.16,30.09,10,9,2,8,4,,0.02,8,Rain,25
2012-10-10,72,62,54,63,56,45,94,85,53,30.09,29.92,29.79,10,6,0,15,4,45,0.71,6,Fog-Rain,241
2012-10-11,60,52,44,39,37,33,82,56,38,30.19,30.12,29.95,10,10,10,15,9,23,0.00,0,,286
2012-10-12,60,51,42,44,38,24,89,64,38,30.38,30.16,30.07,10,10,10,17,6,22,0.00,1,,294
2012-10-13,54,42,30,42,28,23,82,53,35,30.53,30.45,30.32,10,10,10,13,4,18,0.00,0,,204
2012-10-14,68,62,57,58,52,44,80,68,57,30.30,30.14,29.99,10,10,10,18,12,29,0.00,3,,208
2012-10-15,70,66,62,63,61,57,94,84,75,29.94,29.75,29.64,10,10,10,18,13,25,0.01,7,Rain,201
2012-10-16,62,52,42,57,44,37,90,68,42,29.91,29.74,29.62,10,10,10,21,10,26,0.02,2,Rain,309
2012-10-17,60,48,36,45,40,34,93,73,46,30.02,29.97,29.93,10,10,8,13,2,,0.00,0,,285
2012-10-18,64,52,39,50,43,38,96,78,56,30.07,30.04,30.01,10,9,7,13,2,16,0.00,2,,174
2012-10-19,69,66,66,65,64,63,94,93,87,29.81,29.74,29.71,10,7,2,14,10,20,0.04,8,Rain,158
2012-10-20,71,60,48,65,59,42,100,85,52,29.83,29.71,29.68,10,8,0,14,7,17,0.00,3,Fog-Rain,210
2012-10-21,66,54,43,44,41,39,89,65,40,30.00,29.93,29.84,10,10,10,15,4,21,0.00,0,,278
2012-10-22,66,55,44,44,42,40,86,61,40,30.07,30.03,30.00,10,10,10,15,6,20,0.00,0,,280
2012-10-23,70,58,46,55,49,43,93,79,40,30.14,30.09,30.06,10,10,8,7,2,,0.05,4,Rain,263
2012-10-24,60,58,55,55,52,48,94,83,77,30.22,30.15,30.11,10,9,4,6,1,,0.01,8,Rain,27
2012-10-25,63,58,53,52,50,46,94,80,58,30.29,30.25,30.22,10,10,5,6,1,,0.04,8,Rain,128
2012-10-26,68,62,55,56,54,52,93,76,63,30.24,30.18,30.14,10,10,10,8,2,,0.00,6,,149
2012-10-27,66,62,57,55,52,44,87,72,60,30.12,30.02,29.92,10,10,10,8,2,,0.00,5,,86
2012-10-28,61,58,55,51,48,42,77,71,56,29.91,29.79,29.63,10,10,10,15,8,33,0.00,7,,34
2012-10-29,64,60,55,61,55,50,94,83,67,29.61,29.08,28.63,10,6,1,30,15,60,0.52,8,Rain,51
2012-10-30,64,60,55,51,49,46,78,68,58,29.50,29.43,29.15,10,10,10,25,18,39,0.02,7,,164
2012-10-31,55,52,48,46,41,37,87,70,57,29.60,29.54,29.48,10,10,10,13,7,18,0.00,8,Rain,233